createdAt,value
2023-02-25T00:00:31.497Z,55.42
2023-02-25T00:03:36.667Z,304.80
2023-02-25T00:06:40.717Z,164.55
2023-02-25T00:09:45.122Z,198.98
2023-02-25T00:12:49.493Z,122.83
2023-02-25T00:15:53.850Z,83.55
2023-02-25T00:18:58.998Z,133.00
2023-02-25T00:22:02.858Z,219.98
2023-02-25T00:25:07.832Z,205.50
2023-02-25T00:28:12.212Z,226.63
2023-02-25T00:31:43.293Z,103.95
2023-02-25T00:34:53.390Z,236.23
2023-02-25T00:38:13.700Z,146.60
2023-02-25T00:41:23.224Z,55.03
2023-02-25T00:44:27.546Z,35.20
2023-02-25T00:47:32.382Z,39.30
2023-02-25T00:50:40.452Z,499.35
2023-02-25T00:53:45.944Z,98.20
2023-02-25T00:56:50.287Z,19.65
2023-02-25T00:59:54.191Z,43.78
2023-02-25T01:02:59.963Z,26.77
2023-02-25T01:06:04.449Z,27.48
2023-02-25T01:09:14.842Z,22.80
2023-02-25T01:12:19.215Z,35.97
2023-02-25T01:15:23.265Z,32.15
2023-02-25T01:18:28.366Z,23.00
2023-02-25T01:21:36.923Z,20.25
2023-02-25T01:24:41.209Z,19.10
2023-02-25T01:27:47.695Z,16.17
2023-02-25T01:30:52.104Z,14.32
2023-02-25T01:34:04.132Z,11.80
2023-02-25T01:37:17.973Z,18.27
2023-02-25T01:40:27.790Z,15.40
2023-02-25T01:43:32.344Z,13.93
2023-02-25T01:46:38.347Z,14.57
2023-02-25T01:49:47.419Z,11.45
2023-02-25T01:52:52.459Z,31.92
2023-02-25T01:55:57.761Z,19.17
2023-02-25T01:59:02.610Z,22.20
2023-02-25T02:02:09.406Z,10.02
2023-02-25T02:05:14.200Z,15.55
2023-02-25T02:11:23.466Z,9.98
2023-02-25T02:14:35.607Z,13.68
2023-02-25T02:18:00.561Z,8.35
2023-02-25T02:21:18.752Z,11.45
2023-02-25T02:24:33.822Z,11.13
2023-02-25T02:28:03.216Z,12.20
2023-02-25T02:31:10.530Z,14.63
2023-02-25T02:34:41.632Z,19.95
2023-02-25T02:37:56.629Z,10.18
2023-02-25T02:41:37.745Z,13.82
2023-02-25T02:44:57.179Z,77.95
2023-02-25T02:48:37.599Z,42.25
2023-02-25T02:51:50.973Z,7.32
2023-02-25T02:55:03.414Z,6.47
2023-02-25T02:58:14.435Z,6.55
2023-02-25T03:01:28.150Z,30.35
2023-02-25T03:04:36.916Z,11.57
2023-02-25T03:07:52.330Z,6.10
2023-02-25T03:10:56.871Z,8.82
2023-02-25T03:14:01.664Z,18.43
2023-02-25T03:17:13.203Z,32.57
2023-02-25T03:20:25.335Z,18.88
2023-02-25T03:23:33.610Z,6.50
2023-02-25T03:26:39.505Z,4.55
2023-02-25T03:29:44.084Z,15.55
2023-02-25T03:33:00.635Z,30.17
2023-02-25T03:36:14.218Z,13.20
2023-02-25T03:39:22.043Z,44.78
2023-02-25T03:42:36.213Z,14.02
2023-02-25T03:45:46.277Z,30.48
2023-02-25T03:48:53.703Z,14.75
2023-02-25T03:52:01.271Z,18.98
2023-02-25T03:55:07.275Z,21.33
2023-02-25T03:58:11.935Z,11.48
2023-02-25T04:01:31.488Z,34.70
2023-02-25T04:04:36.218Z,17.75
2023-02-25T04:07:41.042Z,6.13
2023-02-25T04:10:45.629Z,6.07
2023-02-25T04:13:51.561Z,12.15
2023-02-25T04:16:56.764Z,12.25
2023-02-25T04:20:01.212Z,6.27
2023-02-25T04:23:06.913Z,12.05
2023-02-25T04:26:11.299Z,6.78
2023-02-25T04:29:16.330Z,7.05
2023-02-25T04:32:20.601Z,6.90
2023-02-25T04:35:25.659Z,14.55
2023-02-25T04:38:30.169Z,131.32
2023-02-25T04:41:36.975Z,15.23
2023-02-25T04:44:51.485Z,6.03
2023-02-25T04:48:00.173Z,49.65
2023-02-25T04:51:05.017Z,18.13
2023-02-25T04:54:09.635Z,59.15
2023-02-25T04:57:14.051Z,11.73
2023-02-25T05:00:21.594Z,20.02
2023-02-25T05:03:26.596Z,14.40
2023-02-25T05:06:31.540Z,14.73
2023-02-25T05:09:36.031Z,7.68
2023-02-25T05:12:40.401Z,32.63
2023-02-25T05:15:45.246Z,28.73
2023-02-25T05:18:50.384Z,47.42
2023-02-25T05:21:55.682Z,7.90
2023-02-25T05:25:00.037Z,182.80
2023-02-25T05:28:07.296Z,72.90
2023-02-25T05:31:13.708Z,21.08
2023-02-25T05:34:18.997Z,15.20
2023-02-25T05:37:25.086Z,57.20
2023-02-25T05:40:29.402Z,5.30
2023-02-25T05:43:34.801Z,45.25
2023-02-25T05:46:39.478Z,15.50
2023-02-25T05:49:44.473Z,13.18
2023-02-25T05:52:49.126Z,11.75
2023-02-25T05:55:53.723Z,9.57
2023-02-25T05:58:58.366Z,8.60
2023-02-25T06:02:02.586Z,7.72
2023-02-25T06:05:07.651Z,14.50
2023-02-25T06:08:12.992Z,27.52
2023-02-25T06:11:25.880Z,6.75
2023-02-25T06:14:30.179Z,7.10
2023-02-25T06:17:34.960Z,39.78
2023-02-25T06:20:39.120Z,45.42
2023-02-25T06:23:45.160Z,20.25
2023-02-25T06:26:49.424Z,12.50
2023-02-25T06:29:53.534Z,27.42
2023-02-25T06:32:57.566Z,19.27
2023-02-25T06:36:02.128Z,33.50
2023-02-25T06:39:06.493Z,47.10
2023-02-25T06:42:11.754Z,69.22
2023-02-25T06:45:16.996Z,39.55
2023-02-25T06:48:21.573Z,10.70
2023-02-25T06:51:26.707Z,13.20
2023-02-25T06:54:31.144Z,71.95
2023-02-25T06:57:36.172Z,19.10
2023-02-25T07:00:43.941Z,30.20
2023-02-25T07:03:48.316Z,23.67
2023-02-25T07:06:52.560Z,21.25
2023-02-25T07:09:56.848Z,23.00
2023-02-25T07:13:00.870Z,7.60
2023-02-25T07:16:04.907Z,117.40
2023-02-25T07:19:09.574Z,89.15
2023-02-25T07:22:18.150Z,15.63
2023-02-25T07:25:22.701Z,18.65
2023-02-25T07:28:26.988Z,7.25
2023-02-25T07:31:31.534Z,39.95
2023-02-25T07:34:39.970Z,40.42
2023-02-25T07:37:44.344Z,72.65
2023-02-25T07:40:49.399Z,36.35
2023-02-25T07:43:53.573Z,22.33
2023-02-25T07:46:59.531Z,21.25
2023-02-25T07:50:04.254Z,11.90
2023-02-25T07:53:08.589Z,112.93
2023-02-25T07:56:13.655Z,36.88
2023-02-25T07:59:18.090Z,46.60
2023-02-25T08:02:22.560Z,76.43
2023-02-25T08:05:30.082Z,39.83
2023-02-25T08:08:35.945Z,9.63
2023-02-25T08:11:43.154Z,20.90
2023-02-25T08:14:47.568Z,23.15
2023-02-25T08:17:53.319Z,14.50
2023-02-25T08:24:06.962Z,19.33
2023-02-25T08:27:11.503Z,16.48
2023-02-25T08:30:16.196Z,200.07
2023-02-25T08:33:21.100Z,15.98
2023-02-25T08:36:32.078Z,56.93
2023-02-25T08:39:36.777Z,284.55
2023-02-25T08:42:40.580Z,52.08
2023-02-25T08:45:44.575Z,27.20
2023-02-25T08:48:51.243Z,28.50
2023-02-25T08:51:55.788Z,33.05
2023-02-25T08:55:03.314Z,20.07
2023-02-25T08:58:08.526Z,39.53
2023-02-25T09:01:17.614Z,31.88
2023-02-25T09:04:24.597Z,29.23
2023-02-25T09:07:28.627Z,32.17
2023-02-25T09:10:48.207Z,272.48
2023-02-25T09:13:54.993Z,388.92
2023-02-25T09:16:59.856Z,149.52
2023-02-25T09:20:08.030Z,81.72
2023-02-25T09:23:12.621Z,42.33
2023-02-25T09:26:18.266Z,118.60
2023-02-25T09:29:23.204Z,58.28
2023-02-25T09:32:27.420Z,83.20
2023-02-25T09:35:32.599Z,80.05
2023-02-25T09:38:37.952Z,77.20
2023-02-25T09:41:46.088Z,76.15
2023-02-25T09:45:02.125Z,50.13
2023-02-25T09:48:17.329Z,34.58
2023-02-25T09:51:35.539Z,24.52
2023-02-25T09:54:45.815Z,12.60
2023-02-25T09:58:05.277Z,17.95
2023-02-25T10:01:14.017Z,47.85
2023-02-25T10:04:28.477Z,44.42
2023-02-25T10:07:54.062Z,38.17
2023-02-25T10:11:03.039Z,52.83
2023-02-25T10:14:39.433Z,63.20
2023-02-25T10:17:56.284Z,94.25
2023-02-25T10:21:25.509Z,104.78
2023-02-25T10:24:49.638Z,139.25
2023-02-25T10:28:08.772Z,175.55
2023-02-25T10:31:19.677Z,129.07
2023-02-25T10:34:28.206Z,112.40
2023-02-25T10:37:35.903Z,89.00
2023-02-25T10:40:42.015Z,95.97
2023-02-25T10:43:47.809Z,248.73
2023-02-25T10:46:56.946Z,140.82
2023-02-25T10:50:38.832Z,246.40
2023-02-25T10:54:07.283Z,217.70
2023-02-25T10:57:17.917Z,223.85
2023-02-25T11:00:28.764Z,232.63
2023-02-25T11:03:37.826Z,231.05
2023-02-25T11:07:24.321Z,230.50
2023-02-25T11:10:35.949Z,196.18
2023-02-25T11:14:19.673Z,206.27
2023-02-25T11:17:24.413Z,190.43
2023-02-25T11:20:33.165Z,209.60
2023-02-25T11:23:47.961Z,221.20
2023-02-25T11:26:53.819Z,308.13
2023-02-25T11:30:13.873Z,292.80
2023-02-25T11:33:45.755Z,249.65
2023-02-25T11:36:51.279Z,211.82
2023-02-25T11:43:28.607Z,169.93
2023-02-25T11:46:34.843Z,154.10
2023-02-25T11:49:54.348Z,156.27
2023-02-25T11:53:23.012Z,157.98
2023-02-25T11:56:35.042Z,182.43
2023-02-25T12:00:23.878Z,194.07
2023-02-25T12:03:47.566Z,133.82
2023-02-25T12:07:25.671Z,93.30
2023-02-25T12:10:33.089Z,115.28
2023-02-25T12:14:20.665Z,119.13
2023-02-25T12:17:49.246Z,120.72
2023-02-25T12:20:56.694Z,135.75
2023-02-25T12:24:26.350Z,178.98
2023-02-25T12:28:02.968Z,138.35
2023-02-25T12:31:45.108Z,127.95
2023-02-25T12:35:08.159Z,116.60
2023-02-25T12:38:37.801Z,115.80
2023-02-25T12:41:47.462Z,170.27
2023-02-25T12:45:21.654Z,183.15
2023-02-25T12:48:57.011Z,270.15
2023-02-25T12:52:19.361Z,379.48
2023-02-25T12:55:23.987Z,369.95
2023-02-25T12:58:41.093Z,317.58
2023-02-25T13:02:04.586Z,211.77
2023-02-25T13:05:30.701Z,149.88
2023-02-25T13:08:53.824Z,336.90
2023-02-25T13:12:15.096Z,241.52
2023-02-25T13:15:44.047Z,220.82
2023-02-25T13:18:57.382Z,198.73
2023-02-25T13:22:25.265Z,240.55
2023-02-25T13:25:47.790Z,157.77
2023-02-25T13:28:58.555Z,138.98
2023-02-25T13:32:17.881Z,161.27
2023-02-25T13:35:43.489Z,170.93
2023-02-25T13:39:02.410Z,110.20
2023-02-25T13:42:12.119Z,120.60
2023-02-25T13:45:40.601Z,69.05
2023-02-25T13:48:59.875Z,79.13
2023-02-25T13:52:39.004Z,66.55
2023-02-25T13:56:24.818Z,70.40
2023-02-25T13:59:56.927Z,56.25
2023-02-25T14:03:22.458Z,45.25
2023-02-25T14:06:48.399Z,56.60
2023-02-25T14:10:16.956Z,71.40
2023-02-25T14:13:42.586Z,61.15
2023-02-25T14:16:57.514Z,52.00
2023-02-25T14:20:23.316Z,51.77
2023-02-25T14:23:42.612Z,39.53
2023-02-25T14:27:21.577Z,38.58
2023-02-25T14:30:25.930Z,41.00
2023-02-25T14:33:38.429Z,130.80
2023-02-25T14:36:48.446Z,326.33
2023-02-25T14:40:27.058Z,43.03
2023-02-25T14:43:36.501Z,31.27
2023-02-25T14:46:44.169Z,128.73
2023-02-25T14:50:00.888Z,60.17
2023-02-25T14:53:27.729Z,34.13
2023-02-25T14:56:58.651Z,46.33
2023-02-25T15:00:24.398Z,46.95
2023-02-25T15:03:31.994Z,36.50
2023-02-25T15:06:54.301Z,33.15
2023-02-25T15:10:19.877Z,32.60
2023-02-25T15:13:55.372Z,27.65
2023-02-25T15:17:47.283Z,30.20
2023-02-25T15:20:51.823Z,28.50
2023-02-25T15:23:56.242Z,37.37
2023-02-25T15:27:01.428Z,42.38
2023-02-25T15:30:09.336Z,45.92
2023-02-25T15:33:27.464Z,48.58
2023-02-25T15:36:50.750Z,48.13
2023-02-25T15:39:58.216Z,46.15
2023-02-25T15:43:27.267Z,48.67
2023-02-25T15:46:37.569Z,33.55
2023-02-25T15:49:47.562Z,54.83
2023-02-25T15:52:58.534Z,48.15
2023-02-25T15:56:05.803Z,36.10
2023-02-25T15:59:10.316Z,30.38
2023-02-25T16:02:34.249Z,33.67
2023-02-25T16:05:48.163Z,32.67
2023-02-25T16:09:11.656Z,40.50
2023-02-25T16:12:17.543Z,41.45
2023-02-25T16:15:39.665Z,54.22
2023-02-25T16:18:51.044Z,37.50
2023-02-25T16:22:09.077Z,34.28
2023-02-25T16:25:19.971Z,35.67
2023-02-25T16:29:07.939Z,35.08
2023-02-25T16:32:39.413Z,34.38
2023-02-25T16:36:06.899Z,27.65
2023-02-25T16:39:24.559Z,24.52
2023-02-25T16:42:34.080Z,22.13
2023-02-25T16:46:01.765Z,27.45
2023-02-25T16:49:24.713Z,26.90
2023-02-25T16:52:36.976Z,25.55
2023-02-25T16:55:42.106Z,34.35
2023-02-25T16:59:04.694Z,39.63
2023-02-25T17:02:17.999Z,24.23
2023-02-25T17:05:37.332Z,27.70
2023-02-25T17:08:47.664Z,26.52
2023-02-25T17:11:56.891Z,25.65
2023-02-25T17:15:05.344Z,24.17
2023-02-25T17:18:56.800Z,26.98
2023-02-25T17:22:02.376Z,21.48
2023-02-25T17:25:16.823Z,28.42
2023-02-25T17:28:28.005Z,36.75
2023-02-25T17:31:32.286Z,31.17
2023-02-25T17:34:37.826Z,28.93
2023-02-25T17:38:16.387Z,35.90
2023-02-25T17:41:28.075Z,27.90
2023-02-25T17:44:43.304Z,29.20
2023-02-25T17:47:47.994Z,32.58
2023-02-25T17:51:08.630Z,32.33
2023-02-25T17:54:21.034Z,31.50
2023-02-25T17:57:29.005Z,30.42
2023-02-25T18:00:37.048Z,40.10
2023-02-25T18:03:47.375Z,33.97
2023-02-25T18:06:52.235Z,45.47
2023-02-25T18:09:58.142Z,27.77
2023-02-25T18:13:05.612Z,32.83
2023-02-25T18:16:42.500Z,32.78
2023-02-25T18:19:47.132Z,29.20
2023-02-25T18:22:51.455Z,29.47
2023-02-25T18:26:31.618Z,46.35
2023-02-25T18:29:35.978Z,73.25
2023-02-25T18:32:40.399Z,97.43
2023-02-25T18:35:47.550Z,73.30
2023-02-25T18:38:53.968Z,56.90
2023-02-25T18:48:28.641Z,40.17
2023-02-25T18:51:33.334Z,43.10
2023-02-25T18:54:37.618Z,37.72
2023-02-25T18:57:41.993Z,37.63
2023-02-25T19:00:49.253Z,39.33
2023-02-25T19:04:00.255Z,37.33
2023-02-25T19:07:11.735Z,38.03
2023-02-25T19:10:27.608Z,39.58
2023-02-25T19:13:36.364Z,37.35
2023-02-25T19:16:41.189Z,39.13
2023-02-25T19:19:47.201Z,42.33
2023-02-25T19:22:54.060Z,37.80
2023-02-25T19:26:01.617Z,49.85
2023-02-25T19:29:06.320Z,43.70
2023-02-25T19:32:10.714Z,45.72
2023-02-25T19:35:15.051Z,31.83
2023-02-25T19:38:20.806Z,40.92
2023-02-25T19:41:25.369Z,32.97
2023-02-25T19:44:29.639Z,29.70
2023-02-25T19:47:44.077Z,35.47
2023-02-25T19:50:48.310Z,55.25
2023-02-25T19:53:52.962Z,45.08
2023-02-25T19:56:57.240Z,43.80
2023-02-25T20:00:01.571Z,42.90
2023-02-25T20:03:16.445Z,39.05
2023-02-25T20:06:23.881Z,44.03
2023-02-25T20:09:28.380Z,33.67
2023-02-25T20:12:32.496Z,32.13
2023-02-25T20:15:36.228Z,26.60
2023-02-25T20:18:41.588Z,26.58
2023-02-25T20:21:45.873Z,26.75
2023-02-25T20:24:50.327Z,29.45
2023-02-25T20:27:54.699Z,27.35
2023-02-25T20:31:07.412Z,25.63
2023-02-25T20:34:18.738Z,28.45
2023-02-25T20:37:30.302Z,24.90
2023-02-25T20:40:34.645Z,19.05
2023-02-25T20:43:39.251Z,29.90
2023-02-25T20:46:44.984Z,38.58
2023-02-25T20:49:50.190Z,32.42
2023-02-25T20:52:55.566Z,42.08
2023-02-25T20:56:00.520Z,45.25
2023-02-25T20:59:05.882Z,88.70
2023-02-25T21:05:15.484Z,41.37
2023-02-25T21:08:20.100Z,32.83
2023-02-25T21:11:25.666Z,49.80
2023-02-25T21:14:32.007Z,55.67
2023-02-25T21:17:36.288Z,54.17
2023-02-25T21:20:40.877Z,61.87
2023-02-25T21:23:45.671Z,75.57
2023-02-25T21:26:50.080Z,55.78
2023-02-25T21:29:54.089Z,48.33
2023-02-25T21:32:59.500Z,38.47
2023-02-25T21:36:04.487Z,36.92
2023-02-25T21:39:10.087Z,56.47
2023-02-25T21:42:14.021Z,61.60
2023-02-25T21:45:18.559Z,60.80
2023-02-25T21:48:24.910Z,52.83
2023-02-25T21:51:30.802Z,62.00
2023-02-25T21:54:35.571Z,52.70
2023-02-25T21:57:40.449Z,68.13
2023-02-25T22:00:49.319Z,100.18
2023-02-25T22:03:57.117Z,51.88
2023-02-25T22:10:05.311Z,85.40
2023-02-25T22:13:10.047Z,99.27
2023-02-25T22:16:15.905Z,49.42
2023-02-25T22:19:20.113Z,60.85
2023-02-25T22:22:24.329Z,49.55
2023-02-25T22:25:28.953Z,67.50
2023-02-25T22:28:34.007Z,72.32
2023-02-25T22:31:38.799Z,44.40
2023-02-25T22:34:43.215Z,95.15
2023-02-25T22:37:47.668Z,76.33
2023-02-25T22:40:52.358Z,60.60
2023-02-25T22:43:57.982Z,75.85
2023-02-25T22:47:02.587Z,78.07
2023-02-25T22:50:07.641Z,82.05
2023-02-25T22:53:12.315Z,70.78
2023-02-25T22:56:16.949Z,65.78
2023-02-25T22:59:21.194Z,61.03
2023-02-25T23:02:28.022Z,187.52
2023-02-25T23:05:33.083Z,99.32
2023-02-25T23:08:37.663Z,109.47
2023-02-25T23:11:44.505Z,165.80
2023-02-25T23:14:49.168Z,170.90
2023-02-25T23:17:53.666Z,150.90
2023-02-25T23:20:57.796Z,163.43
2023-02-25T23:24:05.441Z,150.10
2023-02-25T23:27:09.813Z,154.48
2023-02-25T23:30:14.656Z,161.60
2023-02-25T23:33:18.830Z,173.57
2023-02-25T23:36:23.990Z,205.35
2023-02-25T23:39:29.065Z,192.18
2023-02-25T23:42:33.161Z,194.50
2023-02-25T23:45:36.998Z,182.85
2023-02-25T23:48:40.993Z,181.95
2023-02-25T23:51:47.141Z,191.25
2023-02-25T23:54:51.984Z,126.35
2023-02-25T23:57:56.926Z,145.80
